sensor_id;sensor_type;location;lat;lon;timestamp;pressure;altitude;pressure_sealevel;temperature
64947;BMP280;51469;52.150;4.682;2023-07-31T00:03:38;101103.81;;;22.99
64947;BMP280;51469;52.150;4.682;2023-07-31T00:06:03;101103.78;;;22.90
64947;BMP280;51469;52.150;4.682;2023-07-31T00:08:28;101110.75;;;22.86
64947;BMP280;51469;52.150;4.682;2023-07-31T00:10:54;101118.09;;;22.92
64947;BMP280;51469;52.150;4.682;2023-07-31T00:13:19;101114.53;;;22.70
64947;BMP280;51469;52.150;4.682;2023-07-31T00:15:44;101121.56;;;22.75
64947;BMP280;51469;52.150;4.682;2023-07-31T00:18:10;101113.47;;;22.77
64947;BMP280;51469;52.150;4.682;2023-07-31T00:20:35;101115.34;;;22.71
64947;BMP280;51469;52.150;4.682;2023-07-31T00:23:00;101117.41;;;22.58
64947;BMP280;51469;52.150;4.682;2023-07-31T00:25:26;101114.81;;;22.42
64947;BMP280;51469;52.150;4.682;2023-07-31T00:27:51;101110.00;;;22.42
64947;BMP280;51469;52.150;4.682;2023-07-31T00:30:16;101124.19;;;22.48
64947;BMP280;51469;52.150;4.682;2023-07-31T00:32:42;101123.50;;;22.44
64947;BMP280;51469;52.150;4.682;2023-07-31T00:35:07;101126.91;;;22.39
64947;BMP280;51469;52.150;4.682;2023-07-31T00:37:33;101123.94;;;22.55
64947;BMP280;51469;52.150;4.682;2023-07-31T00:39:58;101126.00;;;22.42
64947;BMP280;51469;52.150;4.682;2023-07-31T00:42:24;101122.59;;;22.47
64947;BMP280;51469;52.150;4.682;2023-07-31T00:44:49;101117.88;;;22.56
64947;BMP280;51469;52.150;4.682;2023-07-31T00:47:15;101103.13;;;22.34
64947;BMP280;51469;52.150;4.682;2023-07-31T00:49:40;101100.63;;;22.36
64947;BMP280;51469;52.150;4.682;2023-07-31T00:52:06;101098.88;;;22.51
64947;BMP280;51469;52.150;4.682;2023-07-31T00:54:32;101098.44;;;22.53
64947;BMP280;51469;52.150;4.682;2023-07-31T00:56:57;101098.03;;;22.42
64947;BMP280;51469;52.150;4.682;2023-07-31T00:59:23;101101.56;;;22.55
64947;BMP280;51469;52.150;4.682;2023-07-31T01:01:49;101101.34;;;22.71
64947;BMP280;51469;52.150;4.682;2023-07-31T01:04:14;101098.28;;;22.78
64947;BMP280;51469;52.150;4.682;2023-07-31T01:07:25;101085.88;;;22.88
64947;BMP280;51469;52.150;4.682;2023-07-31T01:10:06;101097.97;;;22.84
64947;BMP280;51469;52.150;4.682;2023-07-31T01:12:33;101090.81;;;22.83
64947;BMP280;51469;52.150;4.682;2023-07-31T01:15:08;101100.34;;;22.86
64947;BMP280;51469;52.150;4.682;2023-07-31T01:17:40;101102.81;;;22.84
64947;BMP280;51469;52.150;4.682;2023-07-31T01:20:11;101094.91;;;22.83
64947;BMP280;51469;52.150;4.682;2023-07-31T01:31:31;101090.94;;;22.71
64947;BMP280;51469;52.150;4.682;2023-07-31T01:33:59;101089.84;;;22.47
64947;BMP280;51469;52.150;4.682;2023-07-31T01:36:25;101077.59;;;22.54
64947;BMP280;51469;52.150;4.682;2023-07-31T01:38:51;101079.19;;;22.55
64947;BMP280;51469;52.150;4.682;2023-07-31T01:41:17;101084.47;;;22.62
64947;BMP280;51469;52.150;4.682;2023-07-31T01:43:44;101076.44;;;22.64
64947;BMP280;51469;52.150;4.682;2023-07-31T01:46:09;101068.97;;;22.61
64947;BMP280;51469;52.150;4.682;2023-07-31T01:48:35;101063.38;;;22.70
64947;BMP280;51469;52.150;4.682;2023-07-31T01:51:02;101069.66;;;22.74
64947;BMP280;51469;52.150;4.682;2023-07-31T01:53:28;101060.94;;;22.72
64947;BMP280;51469;52.150;4.682;2023-07-31T01:55:54;101046.38;;;22.46
64947;BMP280;51469;52.150;4.682;2023-07-31T01:58:19;101056.59;;;22.28
64947;BMP280;51469;52.150;4.682;2023-07-31T02:00:45;101052.69;;;22.47
64947;BMP280;51469;52.150;4.682;2023-07-31T02:03:11;101047.19;;;22.56
64947;BMP280;51469;52.150;4.682;2023-07-31T02:05:37;101042.59;;;22.71
64947;BMP280;51469;52.150;4.682;2023-07-31T02:08:08;101034.66;;;22.69
64947;BMP280;51469;52.150;4.682;2023-07-31T02:10:33;101032.03;;;22.75
64947;BMP280;51469;52.150;4.682;2023-07-31T02:12:59;101027.09;;;22.79
64947;BMP280;51469;52.150;4.682;2023-07-31T02:15:24;101026.44;;;22.75
64947;BMP280;51469;52.150;4.682;2023-07-31T02:17:49;101027.38;;;22.72
64947;BMP280;51469;52.150;4.682;2023-07-31T02:20:15;101030.22;;;22.81
64947;BMP280;51469;52.150;4.682;2023-07-31T02:22:40;101028.03;;;22.84
64947;BMP280;51469;52.150;4.682;2023-07-31T02:25:06;101029.56;;;22.77
64947;BMP280;51469;52.150;4.682;2023-07-31T02:27:32;101039.72;;;22.83
64947;BMP280;51469;52.150;4.682;2023-07-31T02:29:57;101030.56;;;22.61
64947;BMP280;51469;52.150;4.682;2023-07-31T02:32:24;101027.81;;;22.70
64947;BMP280;51469;52.150;4.682;2023-07-31T02:34:49;101025.22;;;22.45
64947;BMP280;51469;52.150;4.682;2023-07-31T02:37:15;101023.88;;;22.50
64947;BMP280;51469;52.150;4.682;2023-07-31T02:39:40;101019.75;;;22.42
64947;BMP280;51469;52.150;4.682;2023-07-31T02:42:06;101023.38;;;22.51
64947;BMP280;51469;52.150;4.682;2023-07-31T02:44:31;101012.69;;;22.50
64947;BMP280;51469;52.150;4.682;2023-07-31T02:46:56;101012.69;;;22.59
64947;BMP280;51469;52.150;4.682;2023-07-31T02:49:22;101017.34;;;22.62
64947;BMP280;51469;52.150;4.682;2023-07-31T02:51:47;101005.53;;;22.58
64947;BMP280;51469;52.150;4.682;2023-07-31T02:54:13;101005.13;;;22.68
64947;BMP280;51469;52.150;4.682;2023-07-31T02:56:38;100989.81;;;22.82
64947;BMP280;51469;52.150;4.682;2023-07-31T02:59:03;100994.47;;;22.76
64947;BMP280;51469;52.150;4.682;2023-07-31T03:01:29;100991.03;;;22.81
64947;BMP280;51469;52.150;4.682;2023-07-31T03:03:54;100986.53;;;22.74
64947;BMP280;51469;52.150;4.682;2023-07-31T03:06:19;100980.88;;;22.65
64947;BMP280;51469;52.150;4.682;2023-07-31T03:08:45;100986.06;;;22.76
64947;BMP280;51469;52.150;4.682;2023-07-31T03:11:10;100980.91;;;22.74
64947;BMP280;51469;52.150;4.682;2023-07-31T03:13:36;100984.16;;;22.73
64947;BMP280;51469;52.150;4.682;2023-07-31T03:16:01;100979.47;;;22.70
64947;BMP280;51469;52.150;4.682;2023-07-31T03:18:26;100978.06;;;22.65
64947;BMP280;51469;52.150;4.682;2023-07-31T03:20:51;100970.56;;;22.53
64947;BMP280;51469;52.150;4.682;2023-07-31T03:23:17;100975.41;;;22.62
64947;BMP280;51469;52.150;4.682;2023-07-31T03:25:58;100984.44;;;22.66
64947;BMP280;51469;52.150;4.682;2023-07-31T03:28:23;100969.66;;;22.56
64947;BMP280;51469;52.150;4.682;2023-07-31T03:30:49;100983.78;;;22.62
64947;BMP280;51469;52.150;4.682;2023-07-31T03:33:14;100971.44;;;22.72
64947;BMP280;51469;52.150;4.682;2023-07-31T03:35:40;100969.22;;;22.67
64947;BMP280;51469;52.150;4.682;2023-07-31T03:38:05;100974.22;;;22.72
64947;BMP280;51469;52.150;4.682;2023-07-31T03:40:30;100972.09;;;22.76
64947;BMP280;51469;52.150;4.682;2023-07-31T03:42:56;100966.00;;;22.47
64947;BMP280;51469;52.150;4.682;2023-07-31T03:45:21;100967.31;;;22.55
64947;BMP280;51469;52.150;4.682;2023-07-31T03:47:47;100960.00;;;22.48
64947;BMP280;51469;52.150;4.682;2023-07-31T03:50:12;100949.63;;;22.58
64947;BMP280;51469;52.150;4.682;2023-07-31T03:52:37;100951.16;;;22.59
64947;BMP280;51469;52.150;4.682;2023-07-31T03:55:03;100951.16;;;22.59
64947;BMP280;51469;52.150;4.682;2023-07-31T03:57:28;100942.91;;;22.46
64947;BMP280;51469;52.150;4.682;2023-07-31T03:59:54;100938.69;;;22.51
64947;BMP280;51469;52.150;4.682;2023-07-31T04:02:19;100935.31;;;22.56
64947;BMP280;51469;52.150;4.682;2023-07-31T04:04:44;100928.78;;;22.59
64947;BMP280;51469;52.150;4.682;2023-07-31T04:07:10;100926.97;;;22.74
64947;BMP280;51469;52.150;4.682;2023-07-31T04:09:35;100927.31;;;22.76
64947;BMP280;51469;52.150;4.682;2023-07-31T04:12:00;100919.25;;;22.78
64947;BMP280;51469;52.150;4.682;2023-07-31T04:14:26;100922.03;;;22.78
64947;BMP280;51469;52.150;4.682;2023-07-31T04:16:51;100921.44;;;22.83
64947;BMP280;51469;52.150;4.682;2023-07-31T04:19:17;100924.13;;;22.56
64947;BMP280;51469;52.150;4.682;2023-07-31T04:21:43;100919.53;;;22.71
64947;BMP280;51469;52.150;4.682;2023-07-31T04:24:08;100917.94;;;22.70
64947;BMP280;51469;52.150;4.682;2023-07-31T04:26:34;100919.63;;;22.49
64947;BMP280;51469;52.150;4.682;2023-07-31T04:28:59;100915.31;;;22.66
64947;BMP280;51469;52.150;4.682;2023-07-31T04:31:24;100910.81;;;22.69
64947;BMP280;51469;52.150;4.682;2023-07-31T04:33:50;100905.50;;;22.62
64947;BMP280;51469;52.150;4.682;2023-07-31T04:36:15;100895.28;;;22.68
64947;BMP280;51469;52.150;4.682;2023-07-31T04:38:40;100901.53;;;22.81
64947;BMP280;51469;52.150;4.682;2023-07-31T04:41:06;100894.34;;;22.71
64947;BMP280;51469;52.150;4.682;2023-07-31T04:43:31;100899.63;;;22.69
64947;BMP280;51469;52.150;4.682;2023-07-31T04:45:57;100894.03;;;22.60
64947;BMP280;51469;52.150;4.682;2023-07-31T04:48:23;100897.16;;;22.71
64947;BMP280;51469;52.150;4.682;2023-07-31T04:50:48;100896.97;;;22.56
64947;BMP280;51469;52.150;4.682;2023-07-31T04:53:14;100889.03;;;22.55
64947;BMP280;51469;52.150;4.682;2023-07-31T04:55:39;100899.50;;;22.33
64947;BMP280;51469;52.150;4.682;2023-07-31T04:58:05;100893.59;;;22.31
64947;BMP280;51469;52.150;4.682;2023-07-31T05:00:30;100881.16;;;22.32
64947;BMP280;51469;52.150;4.682;2023-07-31T05:02:56;100884.00;;;22.41
64947;BMP280;51469;52.150;4.682;2023-07-31T05:05:21;100884.34;;;22.52
64947;BMP280;51469;52.150;4.682;2023-07-31T05:07:46;100888.66;;;22.44
64947;BMP280;51469;52.150;4.682;2023-07-31T05:10:12;100873.16;;;22.12
64947;BMP280;51469;52.150;4.682;2023-07-31T05:12:37;100890.81;;;22.00
64947;BMP280;51469;52.150;4.682;2023-07-31T05:15:03;100878.22;;;22.05
64947;BMP280;51469;52.150;4.682;2023-07-31T05:17:28;100870.88;;;21.89
64947;BMP280;51469;52.150;4.682;2023-07-31T05:19:54;100875.78;;;22.07
64947;BMP280;51469;52.150;4.682;2023-07-31T05:22:19;100873.69;;;21.98
64947;BMP280;51469;52.150;4.682;2023-07-31T05:24:44;100867.06;;;22.05
64947;BMP280;51469;52.150;4.682;2023-07-31T05:27:10;100869.44;;;21.63
64947;BMP280;51469;52.150;4.682;2023-07-31T05:29:35;100867.31;;;21.89
64947;BMP280;51469;52.150;4.682;2023-07-31T05:32:01;100860.53;;;21.99
64947;BMP280;51469;52.150;4.682;2023-07-31T05:34:26;100850.94;;;22.09
64947;BMP280;51469;52.150;4.682;2023-07-31T05:36:52;100846.25;;;22.06
64947;BMP280;51469;52.150;4.682;2023-07-31T05:39:17;100853.03;;;21.96
64947;BMP280;51469;52.150;4.682;2023-07-31T05:41:45;100853.44;;;22.07
64947;BMP280;51469;52.150;4.682;2023-07-31T05:44:10;100844.59;;;22.08
64947;BMP280;51469;52.150;4.682;2023-07-31T05:46:35;100841.88;;;21.96
64947;BMP280;51469;52.150;4.682;2023-07-31T05:49:01;100839.75;;;22.09
64947;BMP280;51469;52.150;4.682;2023-07-31T05:51:27;100835.44;;;22.17
64947;BMP280;51469;52.150;4.682;2023-07-31T05:53:53;100843.19;;;22.13
64947;BMP280;51469;52.150;4.682;2023-07-31T05:56:18;100842.88;;;22.11
64947;BMP280;51469;52.150;4.682;2023-07-31T05:58:43;100839.31;;;22.10
64947;BMP280;51469;52.150;4.682;2023-07-31T06:01:09;100839.75;;;22.09
64947;BMP280;51469;52.150;4.682;2023-07-31T06:03:34;100832.22;;;22.18
64947;BMP280;51469;52.150;4.682;2023-07-31T06:05:59;100830.84;;;22.32
64947;BMP280;51469;52.150;4.682;2023-07-31T06:08:25;100834.69;;;22.16
64947;BMP280;51469;52.150;4.682;2023-07-31T06:10:50;100829.56;;;22.24
64947;BMP280;51469;52.150;4.682;2023-07-31T06:13:16;100825.25;;;22.23
64947;BMP280;51469;52.150;4.682;2023-07-31T06:15:41;100828.97;;;22.20
64947;BMP280;51469;52.150;4.682;2023-07-31T06:18:06;100833.56;;;22.14
64947;BMP280;51469;52.150;4.682;2023-07-31T06:20:36;100819.03;;;22.28
64947;BMP280;51469;52.150;4.682;2023-07-31T06:23:01;100815.63;;;22.33
64947;BMP280;51469;52.150;4.682;2023-07-31T06:25:27;100826.22;;;22.38
64947;BMP280;51469;52.150;4.682;2023-07-31T06:27:52;100818.75;;;22.44
64947;BMP280;51469;52.150;4.682;2023-07-31T06:30:18;100814.38;;;22.34
64947;BMP280;51469;52.150;4.682;2023-07-31T06:32:43;100808.22;;;22.48
64947;BMP280;51469;52.150;4.682;2023-07-31T06:35:09;100802.31;;;22.46
64947;BMP280;51469;52.150;4.682;2023-07-31T06:37:34;100795.50;;;22.56
64947;BMP280;51469;52.150;4.682;2023-07-31T06:39:59;100803.13;;;22.46
64947;BMP280;51469;52.150;4.682;2023-07-31T06:42:25;100800.16;;;22.59
64947;BMP280;51469;52.150;4.682;2023-07-31T06:44:50;100795.50;;;22.56
64947;BMP280;51469;52.150;4.682;2023-07-31T06:47:16;100787.69;;;22.42
64947;BMP280;51469;52.150;4.682;2023-07-31T06:49:41;100793.44;;;22.47
64947;BMP280;51469;52.150;4.682;2023-07-31T06:52:06;100790.84;;;22.53
64947;BMP280;51469;52.150;4.682;2023-07-31T06:54:32;100782.13;;;22.51
64947;BMP280;51469;52.150;4.682;2023-07-31T06:56:57;100784.03;;;22.63
64947;BMP280;51469;52.150;4.682;2023-07-31T06:59:23;100792.41;;;22.63
64947;BMP280;51469;52.150;4.682;2023-07-31T07:01:48;100780.91;;;22.61
64947;BMP280;51469;52.150;4.682;2023-07-31T07:04:14;100794.59;;;22.77
64947;BMP280;51469;52.150;4.682;2023-07-31T07:06:39;100789.63;;;22.81
64947;BMP280;51469;52.150;4.682;2023-07-31T07:09:04;100776.69;;;22.65
64947;BMP280;51469;52.150;4.682;2023-07-31T07:11:30;100786.50;;;22.61
64947;BMP280;51469;52.150;4.682;2023-07-31T07:13:56;100786.81;;;22.72
64947;BMP280;51469;52.150;4.682;2023-07-31T07:16:21;100779.50;;;22.38
64947;BMP280;51469;52.150;4.682;2023-07-31T07:18:46;100772.31;;;22.37
64947;BMP280;51469;52.150;4.682;2023-07-31T07:21:12;100789.91;;;22.56
64947;BMP280;51469;52.150;4.682;2023-07-31T07:23:41;100781.69;;;22.61
64947;BMP280;51469;52.150;4.682;2023-07-31T07:26:06;100788.06;;;22.71
64947;BMP280;51469;52.150;4.682;2023-07-31T07:28:32;100791.78;;;22.77
64947;BMP280;51469;52.150;4.682;2023-07-31T07:30:57;100777.19;;;22.82
64947;BMP280;51469;52.150;4.682;2023-07-31T07:33:23;100786.69;;;22.84
64947;BMP280;51469;52.150;4.682;2023-07-31T07:35:48;100780.63;;;23.03
64947;BMP280;51469;52.150;4.682;2023-07-31T07:38:14;100780.44;;;22.98
64947;BMP280;51469;52.150;4.682;2023-07-31T07:40:40;100780.31;;;22.92
64947;BMP280;51469;52.150;4.682;2023-07-31T07:43:06;100778.09;;;22.52
64947;BMP280;51469;52.150;4.682;2023-07-31T07:45:31;100783.88;;;22.84
64947;BMP280;51469;52.150;4.682;2023-07-31T07:47:57;100777.81;;;23.03
64947;BMP280;51469;52.150;4.682;2023-07-31T07:50:23;100794.28;;;23.01
64947;BMP280;51469;52.150;4.682;2023-07-31T07:52:48;100782.16;;;23.04
64947;BMP280;51469;52.150;4.682;2023-07-31T07:55:13;100781.22;;;23.07
64947;BMP280;51469;52.150;4.682;2023-07-31T07:57:39;100782.16;;;23.22
64947;BMP280;51469;52.150;4.682;2023-07-31T08:00:05;100777.78;;;23.12
64947;BMP280;51469;52.150;4.682;2023-07-31T08:02:31;100778.75;;;23.18
64947;BMP280;51469;52.150;4.682;2023-07-31T08:04:56;100781.19;;;23.34
64947;BMP280;51469;52.150;4.682;2023-07-31T08:07:22;100764.88;;;23.33
64947;BMP280;51469;52.150;4.682;2023-07-31T08:09:47;100763.78;;;23.30
64947;BMP280;51469;52.150;4.682;2023-07-31T08:12:12;100758.78;;;23.43
64947;BMP280;51469;52.150;4.682;2023-07-31T08:14:38;100772.47;;;23.41
64947;BMP280;51469;52.150;4.682;2023-07-31T08:17:03;100760.34;;;23.44
64947;BMP280;51469;52.150;4.682;2023-07-31T08:19:29;100762.44;;;23.58
64947;BMP280;51469;52.150;4.682;2023-07-31T08:21:54;100754.72;;;23.44
64947;BMP280;51469;52.150;4.682;2023-07-31T08:24:20;100758.44;;;23.50
64947;BMP280;51469;52.150;4.682;2023-07-31T08:26:45;100752.50;;;23.57
64947;BMP280;51469;52.150;4.682;2023-07-31T08:29:11;100754.69;;;23.62
64947;BMP280;51469;52.150;4.682;2023-07-31T08:31:37;100755.31;;;23.48
64947;BMP280;51469;52.150;4.682;2023-07-31T08:34:02;100756.63;;;23.29
64947;BMP280;51469;52.150;4.682;2023-07-31T08:36:28;100750.09;;;23.23
64947;BMP280;51469;52.150;4.682;2023-07-31T08:38:53;100747.22;;;23.50
64947;BMP280;51469;52.150;4.682;2023-07-31T08:41:18;100754.44;;;23.24
64947;BMP280;51469;52.150;4.682;2023-07-31T08:43:47;100762.81;;;23.42
64947;BMP280;51469;52.150;4.682;2023-07-31T08:46:14;100746.56;;;23.64
64947;BMP280;51469;52.150;4.682;2023-07-31T08:48:43;100740.63;;;23.71
64947;BMP280;51469;52.150;4.682;2023-07-31T08:51:09;100754.69;;;23.62
64947;BMP280;51469;52.150;4.682;2023-07-31T08:53:35;100752.28;;;23.70
64947;BMP280;51469;52.150;4.682;2023-07-31T08:56:00;100753.13;;;23.61
64947;BMP280;51469;52.150;4.682;2023-07-31T08:58:30;100751.09;;;23.62
64947;BMP280;51469;52.150;4.682;2023-07-31T09:00:56;100750.59;;;23.63
64947;BMP280;51469;52.150;4.682;2023-07-31T09:03:24;100755.22;;;23.75
64947;BMP280;51469;52.150;4.682;2023-07-31T09:05:51;100752.09;;;23.82
64947;BMP280;51469;52.150;4.682;2023-07-31T09:08:20;100752.91;;;23.74
64947;BMP280;51469;52.150;4.682;2023-07-31T09:10:46;100754.25;;;23.87
64947;BMP280;51469;52.150;4.682;2023-07-31T09:13:15;100745.88;;;23.78
64947;BMP280;51469;52.150;4.682;2023-07-31T09:15:44;100750.50;;;23.81
64947;BMP280;51469;52.150;4.682;2023-07-31T09:18:10;100737.44;;;23.87
64947;BMP280;51469;52.150;4.682;2023-07-31T09:20:36;100738.69;;;23.86
64947;BMP280;51469;52.150;4.682;2023-07-31T09:23:13;100740.25;;;23.87
64947;BMP280;51469;52.150;4.682;2023-07-31T09:25:41;100743.28;;;23.98
64947;BMP280;51469;52.150;4.682;2023-07-31T09:28:09;100742.03;;;23.99
64947;BMP280;51469;52.150;4.682;2023-07-31T09:30:51;100744.41;;;23.92
64947;BMP280;51469;52.150;4.682;2023-07-31T09:33:18;100735.81;;;23.63
64947;BMP280;51469;52.150;4.682;2023-07-31T09:35:43;100747.44;;;23.70
64947;BMP280;51469;52.150;4.682;2023-07-31T09:38:11;100732.50;;;23.73
64947;BMP280;51469;52.150;4.682;2023-07-31T09:40:42;100740.56;;;23.89
64947;BMP280;51469;52.150;4.682;2023-07-31T09:43:19;100745.88;;;24.11
64947;BMP280;51469;52.150;4.682;2023-07-31T09:45:45;100735.09;;;24.09
64947;BMP280;51469;52.150;4.682;2023-07-31T09:48:12;100743.84;;;24.11
64947;BMP280;51469;52.150;4.682;2023-07-31T09:50:40;100746.69;;;24.02
64947;BMP280;51469;52.150;4.682;2023-07-31T09:53:07;100736.19;;;24.12
64947;BMP280;51469;52.150;4.682;2023-07-31T09:55:33;100737.66;;;23.98
64947;BMP280;51469;52.150;4.682;2023-07-31T09:57:59;100729.94;;;23.93
64947;BMP280;51469;52.150;4.682;2023-07-31T10:00:25;100734.66;;;23.78
64947;BMP280;51469;52.150;4.682;2023-07-31T10:02:53;100725.28;;;23.81
64947;BMP280;51469;52.150;4.682;2023-07-31T10:05:19;100733.81;;;23.96
64947;BMP280;51469;52.150;4.682;2023-07-31T10:07:53;100726.91;;;24.06
64947;BMP280;51469;52.150;4.682;2023-07-31T10:10:21;100738.88;;;23.74
64947;BMP280;51469;52.150;4.682;2023-07-31T10:12:49;100731.47;;;23.94
64947;BMP280;51469;52.150;4.682;2023-07-31T10:15:15;100740.44;;;24.07
64947;BMP280;51469;52.150;4.682;2023-07-31T10:17:41;100731.47;;;23.94
64947;BMP280;51469;52.150;4.682;2023-07-31T10:20:07;100738.81;;;24.15
64947;BMP280;51469;52.150;4.682;2023-07-31T10:22:34;100735.44;;;24.11
64947;BMP280;51469;52.150;4.682;2023-07-31T10:25:00;100732.41;;;24.24
64947;BMP280;51469;52.150;4.682;2023-07-31T10:27:26;100744.38;;;24.24
64947;BMP280;51469;52.150;4.682;2023-07-31T10:29:55;100747.16;;;24.48
64947;BMP280;51469;52.150;4.682;2023-07-31T10:32:21;100730.16;;;24.51
64947;BMP280;51469;52.150;4.682;2023-07-31T10:34:47;100736.47;;;24.37
64947;BMP280;51469;52.150;4.682;2023-07-31T10:37:28;100737.59;;;24.54
64947;BMP280;51469;52.150;4.682;2023-07-31T10:40:10;100734.06;;;24.68
64947;BMP280;51469;52.150;4.682;2023-07-31T10:45:13;100729.19;;;24.54
64947;BMP280;51469;52.150;4.682;2023-07-31T10:47:43;100737.25;;;24.38
64947;BMP280;51469;52.150;4.682;2023-07-31T10:50:16;100727.63;;;24.53
64947;BMP280;51469;52.150;4.682;2023-07-31T10:52:53;100725.50;;;24.48
64947;BMP280;51469;52.150;4.682;2023-07-31T10:55:33;100727.94;;;24.55
64947;BMP280;51469;52.150;4.682;2023-07-31T10:58:12;100729.31;;;24.36
64947;BMP280;51469;52.150;4.682;2023-07-31T11:00:39;100723.28;;;24.52
64947;BMP280;51469;52.150;4.682;2023-07-31T11:10:37;100718.41;;;24.76
64947;BMP280;51469;52.150;4.682;2023-07-31T11:13:04;100716.63;;;24.64
64947;BMP280;51469;52.150;4.682;2023-07-31T11:15:30;100713.63;;;24.68
64947;BMP280;51469;52.150;4.682;2023-07-31T11:17:56;100712.22;;;24.87
64947;BMP280;51469;52.150;4.682;2023-07-31T11:20:24;100711.81;;;24.79
64947;BMP280;51469;52.150;4.682;2023-07-31T11:22:49;100713.56;;;24.91
64947;BMP280;51469;52.150;4.682;2023-07-31T11:25:15;100705.06;;;25.00
64947;BMP280;51469;52.150;4.682;2023-07-31T11:27:41;100707.00;;;25.09
64947;BMP280;51469;52.150;4.682;2023-07-31T11:30:07;100703.13;;;25.06
64947;BMP280;51469;52.150;4.682;2023-07-31T11:32:33;100703.13;;;25.06
64947;BMP280;51469;52.150;4.682;2023-07-31T11:34:58;100708.16;;;24.88
64947;BMP280;51469;52.150;4.682;2023-07-31T11:37:23;100704.38;;;24.91
64947;BMP280;51469;52.150;4.682;2023-07-31T11:39:59;100694.50;;;24.81
64947;BMP280;51469;52.150;4.682;2023-07-31T11:42:25;100696.44;;;24.89
64947;BMP280;51469;52.150;4.682;2023-07-31T11:44:50;100700.09;;;24.95
64947;BMP280;51469;52.150;4.682;2023-07-31T11:47:16;100701.38;;;24.94
64947;BMP280;51469;52.150;4.682;2023-07-31T11:49:42;100706.00;;;24.97
64947;BMP280;51469;52.150;4.682;2023-07-31T11:52:08;100714.38;;;25.06
64947;BMP280;51469;52.150;4.682;2023-07-31T11:54:34;100716.38;;;24.91
64947;BMP280;51469;52.150;4.682;2023-07-31T11:57:00;100726.94;;;24.96
64947;BMP280;51469;52.150;4.682;2023-07-31T11:59:26;100716.66;;;24.93
64947;BMP280;51469;52.150;4.682;2023-07-31T12:01:52;100722.06;;;25.11
64947;BMP280;51469;52.150;4.682;2023-07-31T12:04:19;100715.91;;;25.07
64947;BMP280;51469;52.150;4.682;2023-07-31T12:06:45;100711.06;;;24.93
64947;BMP280;51469;52.150;4.682;2023-07-31T12:09:14;100707.34;;;24.87
64947;BMP280;51469;52.150;4.682;2023-07-31T12:11:46;100706.19;;;25.08
64947;BMP280;51469;52.150;4.682;2023-07-31T12:14:25;100684.72;;;25.05
64947;BMP280;51469;52.150;4.682;2023-07-31T12:17:01;100692.28;;;24.99
64947;BMP280;51469;52.150;4.682;2023-07-31T12:19:29;100683.56;;;24.97
64947;BMP280;51469;52.150;4.682;2023-07-31T12:21:56;100689.47;;;24.99
64947;BMP280;51469;52.150;4.682;2023-07-31T12:24:21;100693.41;;;24.64
64947;BMP280;51469;52.150;4.682;2023-07-31T12:26:48;100686.28;;;24.63
64947;BMP280;51469;52.150;4.682;2023-07-31T12:29:13;100685.13;;;24.69
64947;BMP280;51469;52.150;4.682;2023-07-31T12:31:41;100685.03;;;24.78
64947;BMP280;51469;52.150;4.682;2023-07-31T12:34:16;100681.81;;;24.56
64947;BMP280;51469;52.150;4.682;2023-07-31T12:36:42;100684.31;;;24.54
64947;BMP280;51469;52.150;4.682;2023-07-31T12:39:08;100669.41;;;24.48
64947;BMP280;51469;52.150;4.682;2023-07-31T12:41:33;100671.47;;;24.62
64947;BMP280;51469;52.150;4.682;2023-07-31T12:43:59;100680.94;;;24.65
64947;BMP280;51469;52.150;4.682;2023-07-31T12:46:24;100660.06;;;24.95
64947;BMP280;51469;52.150;4.682;2023-07-31T12:48:50;100669.91;;;25.19
64947;BMP280;51469;52.150;4.682;2023-07-31T12:51:15;100656.88;;;25.36
64947;BMP280;51469;52.150;4.682;2023-07-31T12:53:40;100669.88;;;25.68
64947;BMP280;51469;52.150;4.682;2023-07-31T12:56:06;100671.22;;;25.72
64947;BMP280;51469;52.150;4.682;2023-07-31T12:58:31;100665.69;;;25.78
64947;BMP280;51469;52.150;4.682;2023-07-31T13:00:57;100665.28;;;25.85
64947;BMP280;51469;52.150;4.682;2023-07-31T13:03:22;100666.44;;;25.78
64947;BMP280;51469;52.150;4.682;2023-07-31T13:05:47;100657.81;;;25.62
64947;BMP280;51469;52.150;4.682;2023-07-31T13:08:13;100648.00;;;25.57
64947;BMP280;51469;52.150;4.682;2023-07-31T13:10:40;100646.78;;;25.44
64947;BMP280;51469;52.150;4.682;2023-07-31T13:13:06;100639.91;;;25.45
64947;BMP280;51469;52.150;4.682;2023-07-31T13:15:31;100640.72;;;25.31
64947;BMP280;51469;52.150;4.682;2023-07-31T13:17:56;100642.44;;;25.43
64947;BMP280;51469;52.150;4.682;2023-07-31T13:20:22;100629.69;;;25.28
64947;BMP280;51469;52.150;4.682;2023-07-31T13:22:47;100635.09;;;25.31
64947;BMP280;51469;52.150;4.682;2023-07-31T13:25:13;100625.75;;;25.20
64947;BMP280;51469;52.150;4.682;2023-07-31T13:27:38;100634.75;;;25.24
64947;BMP280;51469;52.150;4.682;2023-07-31T13:30:04;100624.34;;;24.95
64947;BMP280;51469;52.150;4.682;2023-07-31T13:32:30;100638.88;;;24.79
64947;BMP280;51469;52.150;4.682;2023-07-31T13:34:55;100639.25;;;24.72
64947;BMP280;51469;52.150;4.682;2023-07-31T13:37:20;100631.50;;;24.67
64947;BMP280;51469;52.150;4.682;2023-07-31T13:39:46;100631.13;;;24.74
64947;BMP280;51469;52.150;4.682;2023-07-31T13:42:11;100640.03;;;24.73
64947;BMP280;51469;52.150;4.682;2023-07-31T13:44:41;100627.03;;;24.75
64947;BMP280;51469;52.150;4.682;2023-07-31T13:47:07;100629.66;;;24.64
64947;BMP280;51469;52.150;4.682;2023-07-31T13:49:33;100637.13;;;24.53
64947;BMP280;51469;52.150;4.682;2023-07-31T13:51:58;100626.84;;;24.64
64947;BMP280;51469;52.150;4.682;2023-07-31T13:54:24;100626.94;;;24.84
64947;BMP280;51469;52.150;4.682;2023-07-31T13:56:51;100638.50;;;24.86
64947;BMP280;51469;52.150;4.682;2023-07-31T13:59:16;100622.03;;;24.50
64947;BMP280;51469;52.150;4.682;2023-07-31T14:01:42;100627.72;;;24.41
64947;BMP280;51469;52.150;4.682;2023-07-31T14:04:08;100622.59;;;24.54
64947;BMP280;51469;52.150;4.682;2023-07-31T14:06:33;100605.75;;;24.69
64947;BMP280;51469;52.150;4.682;2023-07-31T14:08:58;100615.13;;;24.37
64947;BMP280;51469;52.150;4.682;2023-07-31T14:11:24;100606.03;;;24.27
64947;BMP280;51469;52.150;4.682;2023-07-31T14:13:50;100616.50;;;24.41